sensor_id;sensor_type;location;lat;lon;timestamp;temperature;humidity
6293;DHT22;3179;54.350;10.102;2023-05-10T00:01:11;18.40;71.90
6293;DHT22;3179;54.350;10.102;2023-05-10T00:03:39;18.40;71.90
6293;DHT22;3179;54.350;10.102;2023-05-10T00:06:07;18.40;72.00
6293;DHT22;3179;54.350;10.102;2023-05-10T00:08:34;18.30;72.10
6293;DHT22;3179;54.350;10.102;2023-05-10T00:11:17;18.30;72.00
6293;DHT22;3179;54.350;10.102;2023-05-10T00:13:44;18.30;72.60
6293;DHT22;3179;54.350;10.102;2023-05-10T00:16:11;18.30;72.40
6293;DHT22;3179;54.350;10.102;2023-05-10T00:18:40;18.30;72.20
6293;DHT22;3179;54.350;10.102;2023-05-10T00:21:07;18.20;72.10
6293;DHT22;3179;54.350;10.102;2023-05-10T00:23:34;18.20;72.40
6293;DHT22;3179;54.350;10.102;2023-05-10T00:26:04;18.20;72.40
6293;DHT22;3179;54.350;10.102;2023-05-10T00:28:34;18.20;72.90
6293;DHT22;3179;54.350;10.102;2023-05-10T00:42:11;18.00;73.00
6293;DHT22;3179;54.350;10.102;2023-05-10T00:44:42;17.90;73.30
6293;DHT22;3179;54.350;10.102;2023-05-10T00:47:09;17.90;73.40
6293;DHT22;3179;54.350;10.102;2023-05-10T00:49:37;17.90;73.20
6293;DHT22;3179;54.350;10.102;2023-05-10T00:52:04;17.90;73.30
6293;DHT22;3179;54.350;10.102;2023-05-10T00:54:31;17.90;73.20
6293;DHT22;3179;54.350;10.102;2023-05-10T00:56:58;17.90;73.30
6293;DHT22;3179;54.350;10.102;2023-05-10T00:59:25;17.80;73.40
6293;DHT22;3179;54.350;10.102;2023-05-10T01:01:56;17.90;73.40
6293;DHT22;3179;54.350;10.102;2023-05-10T01:04:23;17.80;73.80
6293;DHT22;3179;54.350;10.102;2023-05-10T01:06:51;17.80;73.70
6293;DHT22;3179;54.350;10.102;2023-05-10T01:09:18;17.80;73.70
6293;DHT22;3179;54.350;10.102;2023-05-10T01:11:46;17.70;73.60
6293;DHT22;3179;54.350;10.102;2023-05-10T01:14:14;17.70;73.80
6293;DHT22;3179;54.350;10.102;2023-05-10T01:16:42;17.60;74.10
6293;DHT22;3179;54.350;10.102;2023-05-10T01:19:17;17.60;74.00
6293;DHT22;3179;54.350;10.102;2023-05-10T01:21:49;17.60;74.20
6293;DHT22;3179;54.350;10.102;2023-05-10T01:27:55;17.60;74.80
6293;DHT22;3179;54.350;10.102;2023-05-10T01:30:50;17.60;74.70
6293;DHT22;3179;54.350;10.102;2023-05-10T01:33:25;17.50;74.90
6293;DHT22;3179;54.350;10.102;2023-05-10T01:35:59;17.50;74.60
6293;DHT22;3179;54.350;10.102;2023-05-10T01:38:35;17.50;74.90
6293;DHT22;3179;54.350;10.102;2023-05-10T01:41:12;17.50;74.90
6293;DHT22;3179;54.350;10.102;2023-05-10T01:43:52;17.50;75.10
6293;DHT22;3179;54.350;10.102;2023-05-10T01:46:24;17.50;75.00
6293;DHT22;3179;54.350;10.102;2023-05-10T01:48:57;17.50;74.90
6293;DHT22;3179;54.350;10.102;2023-05-10T01:51:29;17.40;75.20
6293;DHT22;3179;54.350;10.102;2023-05-10T01:54:00;17.40;75.30
6293;DHT22;3179;54.350;10.102;2023-05-10T01:56:30;17.40;75.30
6293;DHT22;3179;54.350;10.102;2023-05-10T01:58:58;17.30;75.50
6293;DHT22;3179;54.350;10.102;2023-05-10T02:01:26;17.30;75.60
6293;DHT22;3179;54.350;10.102;2023-05-10T02:03:55;17.30;75.40
6293;DHT22;3179;54.350;10.102;2023-05-10T02:06:24;17.20;75.70
6293;DHT22;3179;54.350;10.102;2023-05-10T02:08:52;17.20;75.80
6293;DHT22;3179;54.350;10.102;2023-05-10T02:11:20;17.20;75.90
6293;DHT22;3179;54.350;10.102;2023-05-10T02:13:49;17.20;76.00
6293;DHT22;3179;54.350;10.102;2023-05-10T02:16:17;17.20;76.00
6293;DHT22;3179;54.350;10.102;2023-05-10T02:18:45;17.20;76.10
6293;DHT22;3179;54.350;10.102;2023-05-10T02:21:15;17.20;76.00
6293;DHT22;3179;54.350;10.102;2023-05-10T02:23:43;17.10;76.30
6293;DHT22;3179;54.350;10.102;2023-05-10T02:26:17;17.10;76.20
6293;DHT22;3179;54.350;10.102;2023-05-10T02:28:45;17.00;76.70
6293;DHT22;3179;54.350;10.102;2023-05-10T02:31:12;17.00;76.50
6293;DHT22;3179;54.350;10.102;2023-05-10T02:33:39;17.00;76.50
6293;DHT22;3179;54.350;10.102;2023-05-10T02:36:07;17.00;76.40
6293;DHT22;3179;54.350;10.102;2023-05-10T02:38:37;17.00;76.60
6293;DHT22;3179;54.350;10.102;2023-05-10T02:41:04;16.90;76.70
6293;DHT22;3179;54.350;10.102;2023-05-10T02:43:32;16.90;76.70
6293;DHT22;3179;54.350;10.102;2023-05-10T02:45:59;16.90;77.00
6293;DHT22;3179;54.350;10.102;2023-05-10T02:48:26;16.90;76.90
6293;DHT22;3179;54.350;10.102;2023-05-10T02:50:55;16.90;77.00
6293;DHT22;3179;54.350;10.102;2023-05-10T02:53:31;16.90;77.30
6293;DHT22;3179;54.350;10.102;2023-05-10T02:56:04;16.90;77.30
6293;DHT22;3179;54.350;10.102;2023-05-10T02:58:32;16.90;77.50
6293;DHT22;3179;54.350;10.102;2023-05-10T03:00:59;16.90;77.20
6293;DHT22;3179;54.350;10.102;2023-05-10T03:03:26;16.80;77.10
6293;DHT22;3179;54.350;10.102;2023-05-10T03:16:10;16.70;78.70
6293;DHT22;3179;54.350;10.102;2023-05-10T03:18:42;16.60;78.40
6293;DHT22;3179;54.350;10.102;2023-05-10T03:21:11;16.60;78.40
6293;DHT22;3179;54.350;10.102;2023-05-10T03:23:43;16.60;78.20
6293;DHT22;3179;54.350;10.102;2023-05-10T03:26:14;16.60;78.30
6293;DHT22;3179;54.350;10.102;2023-05-10T03:28:43;16.60;78.60
6293;DHT22;3179;54.350;10.102;2023-05-10T03:31:12;16.60;78.20
6293;DHT22;3179;54.350;10.102;2023-05-10T03:33:46;16.60;78.30
6293;DHT22;3179;54.350;10.102;2023-05-10T03:36:13;16.50;79.10
6293;DHT22;3179;54.350;10.102;2023-05-10T03:38:40;16.50;78.70
6293;DHT22;3179;54.350;10.102;2023-05-10T03:41:07;16.40;78.70
6293;DHT22;3179;54.350;10.102;2023-05-10T03:43:33;16.50;78.90
6293;DHT22;3179;54.350;10.102;2023-05-10T03:46:01;16.50;79.00
6293;DHT22;3179;54.350;10.102;2023-05-10T03:48:29;16.40;79.00
6293;DHT22;3179;54.350;10.102;2023-05-10T03:50:58;16.40;79.20
6293;DHT22;3179;54.350;10.102;2023-05-10T03:53:25;16.40;79.30
6293;DHT22;3179;54.350;10.102;2023-05-10T03:55:52;16.30;79.30
6293;DHT22;3179;54.350;10.102;2023-05-10T03:58:19;16.30;79.50
6293;DHT22;3179;54.350;10.102;2023-05-10T04:00:45;16.30;79.40
6293;DHT22;3179;54.350;10.102;2023-05-10T04:03:13;16.40;79.40
6293;DHT22;3179;54.350;10.102;2023-05-10T04:05:41;16.30;79.60
6293;DHT22;3179;54.350;10.102;2023-05-10T04:08:08;16.30;79.80
6293;DHT22;3179;54.350;10.102;2023-05-10T04:10:35;16.30;79.60
6293;DHT22;3179;54.350;10.102;2023-05-10T04:13:01;16.30;79.60
6293;DHT22;3179;54.350;10.102;2023-05-10T04:15:28;16.30;79.70
6293;DHT22;3179;54.350;10.102;2023-05-10T04:17:55;16.30;79.80
6293;DHT22;3179;54.350;10.102;2023-05-10T04:20:22;16.30;80.00
6293;DHT22;3179;54.350;10.102;2023-05-10T04:22:50;16.30;80.10
6293;DHT22;3179;54.350;10.102;2023-05-10T04:25:16;16.30;80.20
6293;DHT22;3179;54.350;10.102;2023-05-10T04:27:43;16.30;80.40
6293;DHT22;3179;54.350;10.102;2023-05-10T04:30:11;16.30;80.30
6293;DHT22;3179;54.350;10.102;2023-05-10T04:32:37;16.20;80.40
6293;DHT22;3179;54.350;10.102;2023-05-10T04:35:05;16.20;80.50
6293;DHT22;3179;54.350;10.102;2023-05-10T04:37:32;16.20;80.50
6293;DHT22;3179;54.350;10.102;2023-05-10T04:40:00;16.20;80.60
6293;DHT22;3179;54.350;10.102;2023-05-10T04:42:27;16.20;80.60
6293;DHT22;3179;54.350;10.102;2023-05-10T04:44:54;16.20;80.70
6293;DHT22;3179;54.350;10.102;2023-05-10T04:47:21;16.20;80.80
6293;DHT22;3179;54.350;10.102;2023-05-10T04:49:47;16.20;80.60
6293;DHT22;3179;54.350;10.102;2023-05-10T04:52:14;16.20;80.60
6293;DHT22;3179;54.350;10.102;2023-05-10T04:54:42;16.20;80.80
6293;DHT22;3179;54.350;10.102;2023-05-10T04:57:11;16.20;81.10
6293;DHT22;3179;54.350;10.102;2023-05-10T04:59:37;16.20;80.90
6293;DHT22;3179;54.350;10.102;2023-05-10T05:02:05;16.20;80.80
6293;DHT22;3179;54.350;10.102;2023-05-10T05:04:31;16.20;81.30
6293;DHT22;3179;54.350;10.102;2023-05-10T05:06:58;16.20;81.60
6293;DHT22;3179;54.350;10.102;2023-05-10T05:09:25;16.20;81.50
6293;DHT22;3179;54.350;10.102;2023-05-10T05:11:52;16.20;81.60
6293;DHT22;3179;54.350;10.102;2023-05-10T05:14:20;16.20;81.50
6293;DHT22;3179;54.350;10.102;2023-05-10T05:16:47;16.20;81.30
6293;DHT22;3179;54.350;10.102;2023-05-10T05:19:13;16.20;81.20
6293;DHT22;3179;54.350;10.102;2023-05-10T05:21:40;16.20;81.20
6293;DHT22;3179;54.350;10.102;2023-05-10T05:24:07;16.20;81.20
6293;DHT22;3179;54.350;10.102;2023-05-10T05:26:35;16.20;81.70
6293;DHT22;3179;54.350;10.102;2023-05-10T05:29:02;16.20;81.70
6293;DHT22;3179;54.350;10.102;2023-05-10T05:31:30;16.20;81.60
6293;DHT22;3179;54.350;10.102;2023-05-10T05:33:57;16.20;81.80
6293;DHT22;3179;54.350;10.102;2023-05-10T05:36:24;16.10;81.90
6293;DHT22;3179;54.350;10.102;2023-05-10T05:38:51;16.10;82.20
6293;DHT22;3179;54.350;10.102;2023-05-10T05:41:17;16.10;82.00
6293;DHT22;3179;54.350;10.102;2023-05-10T05:43:44;16.20;82.00
6293;DHT22;3179;54.350;10.102;2023-05-10T05:46:11;16.20;82.00
6293;DHT22;3179;54.350;10.102;2023-05-10T05:48:39;16.20;81.90
6293;DHT22;3179;54.350;10.102;2023-05-10T05:51:06;16.20;82.00
6293;DHT22;3179;54.350;10.102;2023-05-10T05:53:32;16.30;82.30
6293;DHT22;3179;54.350;10.102;2023-05-10T05:55:59;16.30;82.40
6293;DHT22;3179;54.350;10.102;2023-05-10T05:58:26;16.20;82.50
6293;DHT22;3179;54.350;10.102;2023-05-10T06:00:53;16.30;82.40
6293;DHT22;3179;54.350;10.102;2023-05-10T06:03:20;16.30;82.40
6293;DHT22;3179;54.350;10.102;2023-05-10T06:05:48;16.30;82.50
6293;DHT22;3179;54.350;10.102;2023-05-10T06:08:15;16.30;82.70
6293;DHT22;3179;54.350;10.102;2023-05-10T06:10:42;16.30;82.50
6293;DHT22;3179;54.350;10.102;2023-05-10T06:13:09;16.30;82.70
6293;DHT22;3179;54.350;10.102;2023-05-10T06:15:36;16.40;82.80
6293;DHT22;3179;54.350;10.102;2023-05-10T06:18:03;16.40;82.80
6293;DHT22;3179;54.350;10.102;2023-05-10T06:20:31;16.40;82.50
6293;DHT22;3179;54.350;10.102;2023-05-10T06:22:59;16.40;82.80
6293;DHT22;3179;54.350;10.102;2023-05-10T06:25:26;16.40;82.90
6293;DHT22;3179;54.350;10.102;2023-05-10T06:27:52;16.40;82.60
6293;DHT22;3179;54.350;10.102;2023-05-10T06:30:23;16.40;82.30
6293;DHT22;3179;54.350;10.102;2023-05-10T06:32:53;16.40;82.60
6293;DHT22;3179;54.350;10.102;2023-05-10T06:35:21;16.40;82.70
6293;DHT22;3179;54.350;10.102;2023-05-10T06:37:47;16.40;83.00
6293;DHT22;3179;54.350;10.102;2023-05-10T06:40:16;16.40;83.40
6293;DHT22;3179;54.350;10.102;2023-05-10T06:42:43;16.40;83.90
6293;DHT22;3179;54.350;10.102;2023-05-10T06:45:12;16.40;83.10
6293;DHT22;3179;54.350;10.102;2023-05-10T06:47:39;16.40;82.90
6293;DHT22;3179;54.350;10.102;2023-05-10T06:50:07;16.50;83.10
6293;DHT22;3179;54.350;10.102;2023-05-10T06:52:34;16.50;83.40
6293;DHT22;3179;54.350;10.102;2023-05-10T06:55:01;16.50;83.40
6293;DHT22;3179;54.350;10.102;2023-05-10T06:57:30;16.50;83.80
6293;DHT22;3179;54.350;10.102;2023-05-10T06:59:57;16.50;84.40
6293;DHT22;3179;54.350;10.102;2023-05-10T07:02:24;16.50;83.90
6293;DHT22;3179;54.350;10.102;2023-05-10T07:04:51;16.60;84.00
6293;DHT22;3179;54.350;10.102;2023-05-10T07:07:17;16.60;84.30
6293;DHT22;3179;54.350;10.102;2023-05-10T07:09:45;16.60;84.10
6293;DHT22;3179;54.350;10.102;2023-05-10T07:12:12;16.60;84.40
6293;DHT22;3179;54.350;10.102;2023-05-10T07:14:40;16.60;84.10
6293;DHT22;3179;54.350;10.102;2023-05-10T07:17:07;16.60;84.60
6293;DHT22;3179;54.350;10.102;2023-05-10T07:19:33;16.60;83.90
6293;DHT22;3179;54.350;10.102;2023-05-10T07:22:00;16.60;83.80
6293;DHT22;3179;54.350;10.102;2023-05-10T07:24:27;16.60;84.00
6293;DHT22;3179;54.350;10.102;2023-05-10T07:26:54;16.70;84.00
6293;DHT22;3179;54.350;10.102;2023-05-10T07:29:21;16.70;84.30
6293;DHT22;3179;54.350;10.102;2023-05-10T07:31:49;16.70;84.50
6293;DHT22;3179;54.350;10.102;2023-05-10T07:34:16;16.80;85.00
6293;DHT22;3179;54.350;10.102;2023-05-10T07:36:42;16.80;85.00
6293;DHT22;3179;54.350;10.102;2023-05-10T07:39:09;16.80;85.50
6293;DHT22;3179;54.350;10.102;2023-05-10T07:41:36;16.80;85.10
6293;DHT22;3179;54.350;10.102;2023-05-10T07:44:04;16.90;85.10
6293;DHT22;3179;54.350;10.102;2023-05-10T07:46:31;16.90;85.20
6293;DHT22;3179;54.350;10.102;2023-05-10T07:48:59;16.90;85.40
6293;DHT22;3179;54.350;10.102;2023-05-10T07:51:26;16.90;85.10
6293;DHT22;3179;54.350;10.102;2023-05-10T07:53:53;16.90;85.00
6293;DHT22;3179;54.350;10.102;2023-05-10T07:56:21;17.00;84.80
6293;DHT22;3179;54.350;10.102;2023-05-10T07:58:50;17.00;85.40
6293;DHT22;3179;54.350;10.102;2023-05-10T08:01:17;17.10;86.30
6293;DHT22;3179;54.350;10.102;2023-05-10T08:03:44;17.20;86.00
6293;DHT22;3179;54.350;10.102;2023-05-10T08:06:12;17.20;85.60
6293;DHT22;3179;54.350;10.102;2023-05-10T08:08:39;17.20;85.40
6293;DHT22;3179;54.350;10.102;2023-05-10T08:11:06;17.30;85.50
6293;DHT22;3179;54.350;10.102;2023-05-10T08:13:33;17.30;85.50
6293;DHT22;3179;54.350;10.102;2023-05-10T08:16:00;17.40;85.80
6293;DHT22;3179;54.350;10.102;2023-05-10T08:18:26;17.50;86.30
6293;DHT22;3179;54.350;10.102;2023-05-10T08:20:54;17.50;85.50
6293;DHT22;3179;54.350;10.102;2023-05-10T08:23:22;17.60;85.80
6293;DHT22;3179;54.350;10.102;2023-05-10T08:25:49;17.70;86.60
6293;DHT22;3179;54.350;10.102;2023-05-10T08:28:15;17.70;85.50
6293;DHT22;3179;54.350;10.102;2023-05-10T08:30:42;17.70;85.20
6293;DHT22;3179;54.350;10.102;2023-05-10T08:33:09;17.70;85.20
6293;DHT22;3179;54.350;10.102;2023-05-10T08:35:36;17.80;86.00
6293;DHT22;3179;54.350;10.102;2023-05-10T08:38:02;17.90;86.60
6293;DHT22;3179;54.350;10.102;2023-05-10T08:40:31;17.90;85.40
6293;DHT22;3179;54.350;10.102;2023-05-10T08:43:03;18.00;85.50
6293;DHT22;3179;54.350;10.102;2023-05-10T08:45:33;18.00;85.50
6293;DHT22;3179;54.350;10.102;2023-05-10T08:48:01;18.00;85.10
6293;DHT22;3179;54.350;10.102;2023-05-10T08:50:29;18.00;85.10
6293;DHT22;3179;54.350;10.102;2023-05-10T08:52:59;18.00;85.10
6293;DHT22;3179;54.350;10.102;2023-05-10T08:55:26;18.10;85.10
6293;DHT22;3179;54.350;10.102;2023-05-10T08:57:54;18.10;84.90
6293;DHT22;3179;54.350;10.102;2023-05-10T09:00:22;18.20;85.40
6293;DHT22;3179;54.350;10.102;2023-05-10T09:02:50;18.20;85.40
6293;DHT22;3179;54.350;10.102;2023-05-10T09:05:16;18.30;85.40
6293;DHT22;3179;54.350;10.102;2023-05-10T09:07:43;18.30;85.30
6293;DHT22;3179;54.350;10.102;2023-05-10T09:10:11;18.30;85.40
6293;DHT22;3179;54.350;10.102;2023-05-10T09:12:38;18.40;85.60
6293;DHT22;3179;54.350;10.102;2023-05-10T09:15:07;18.40;85.70
6293;DHT22;3179;54.350;10.102;2023-05-10T09:17:36;18.50;85.70
6293;DHT22;3179;54.350;10.102;2023-05-10T09:20:04;18.60;85.60
6293;DHT22;3179;54.350;10.102;2023-05-10T09:22:32;18.80;86.00
6293;DHT22;3179;54.350;10.102;2023-05-10T09:25:06;18.90;85.70
6293;DHT22;3179;54.350;10.102;2023-05-10T09:27:34;19.00;85.90
6293;DHT22;3179;54.350;10.102;2023-05-10T09:30:00;19.00;85.30
6293;DHT22;3179;54.350;10.102;2023-05-10T09:32:37;19.10;85.80
6293;DHT22;3179;54.350;10.102;2023-05-10T09:35:09;19.10;85.20
6293;DHT22;3179;54.350;10.102;2023-05-10T09:37:36;19.20;85.50
6293;DHT22;3179;54.350;10.102;2023-05-10T09:40:06;19.20;85.60
6293;DHT22;3179;54.350;10.102;2023-05-10T09:42:34;19.30;85.80
6293;DHT22;3179;54.350;10.102;2023-05-10T09:45:02;19.30;85.40
6293;DHT22;3179;54.350;10.102;2023-05-10T09:47:31;19.40;85.60
6293;DHT22;3179;54.350;10.102;2023-05-10T09:50:00;19.40;85.60
6293;DHT22;3179;54.350;10.102;2023-05-10T09:52:29;19.50;86.30
6293;DHT22;3179;54.350;10.102;2023-05-10T09:54:56;19.60;86.70
6293;DHT22;3179;54.350;10.102;2023-05-10T09:57:24;19.80;87.10
6293;DHT22;3179;54.350;10.102;2023-05-10T09:59:51;19.90;86.70
6293;DHT22;3179;54.350;10.102;2023-05-10T10:02:19;20.00;86.20
6293;DHT22;3179;54.350;10.102;2023-05-10T10:04:49;20.20;86.40
6293;DHT22;3179;54.350;10.102;2023-05-10T10:07:23;20.20;86.30
6293;DHT22;3179;54.350;10.102;2023-05-10T10:09:52;20.20;86.60
6293;DHT22;3179;54.350;10.102;2023-05-10T10:12:19;20.30;87.90
6293;DHT22;3179;54.350;10.102;2023-05-10T10:14:47;20.30;87.70
6293;DHT22;3179;54.350;10.102;2023-05-10T10:17:15;20.40;87.50
6293;DHT22;3179;54.350;10.102;2023-05-10T10:19:42;20.40;87.20
6293;DHT22;3179;54.350;10.102;2023-05-10T10:22:09;20.50;87.00
6293;DHT22;3179;54.350;10.102;2023-05-10T10:24:38;20.50;86.90
6293;DHT22;3179;54.350;10.102;2023-05-10T10:27:16;20.60;87.40
6293;DHT22;3179;54.350;10.102;2023-05-10T10:29:52;20.70;87.40
6293;DHT22;3179;54.350;10.102;2023-05-10T10:32:30;20.80;87.60
6293;DHT22;3179;54.350;10.102;2023-05-10T10:35:00;20.90;87.20
6293;DHT22;3179;54.350;10.102;2023-05-10T10:37:42;20.90;86.60
6293;DHT22;3179;54.350;10.102;2023-05-10T10:40:27;21.00;87.20
6293;DHT22;3179;54.350;10.102;2023-05-10T10:42:55;21.00;86.20
6293;DHT22;3179;54.350;10.102;2023-05-10T10:45:23;21.00;86.10
6293;DHT22;3179;54.350;10.102;2023-05-10T10:50:43;21.00;85.70
6293;DHT22;3179;54.350;10.102;2023-05-10T10:53:11;21.00;85.50
6293;DHT22;3179;54.350;10.102;2023-05-10T10:55:46;20.90;86.20
6293;DHT22;3179;54.350;10.102;2023-05-10T10:58:29;20.90;86.30
6293;DHT22;3179;54.350;10.102;2023-05-10T11:01:10;20.90;86.80
6293;DHT22;3179;54.350;10.102;2023-05-10T11:03:37;20.90;86.30
6293;DHT22;3179;54.350;10.102;2023-05-10T11:06:04;20.90;85.80
6293;DHT22;3179;54.350;10.102;2023-05-10T11:08:32;20.90;86.20
6293;DHT22;3179;54.350;10.102;2023-05-10T11:11:06;20.90;85.90
6293;DHT22;3179;54.350;10.102;2023-05-10T11:13:36;20.80;86.10
6293;DHT22;3179;54.350;10.102;2023-05-10T11:16:17;20.80;86.20
6293;DHT22;3179;54.350;10.102;2023-05-10T11:19:02;20.70;85.90
6293;DHT22;3179;54.350;10.102;2023-05-10T11:21:30;20.70;85.30
6293;DHT22;3179;54.350;10.102;2023-05-10T11:23:57;20.60;85.50
6293;DHT22;3179;54.350;10.102;2023-05-10T11:26:30;20.60;85.40
6293;DHT22;3179;54.350;10.102;2023-05-10T11:28:59;20.50;85.60
6293;DHT22;3179;54.350;10.102;2023-05-10T11:31:27;20.40;85.30
6293;DHT22;3179;54.350;10.102;2023-05-10T11:33:55;20.40;86.00
6293;DHT22;3179;54.350;10.102;2023-05-10T11:36:25;20.40;85.90
6293;DHT22;3179;54.350;10.102;2023-05-10T11:38:52;20.40;86.40
6293;DHT22;3179;54.350;10.102;2023-05-10T11:41:20;20.40;86.50
6293;DHT22;3179;54.350;10.102;2023-05-10T11:43:50;20.30;86.10
6293;DHT22;3179;54.350;10.102;2023-05-10T11:46:19;20.30;86.30
6293;DHT22;3179;54.350;10.102;2023-05-10T11:48:48;20.30;86.40
6293;DHT22;3179;54.350;10.102;2023-05-10T11:51:20;20.20;86.50
6293;DHT22;3179;54.350;10.102;2023-05-10T11:53:47;20.30;86.80
6293;DHT22;3179;54.350;10.102;2023-05-10T11:56:13;20.20;86.20
6293;DHT22;3179;54.350;10.102;2023-05-10T11:58:40;20.20;85.90
6293;DHT22;3179;54.350;10.102;2023-05-10T12:01:10;20.10;85.80
6293;DHT22;3179;54.350;10.102;2023-05-10T12:03:37;20.10;85.80
6293;DHT22;3179;54.350;10.102;2023-05-10T12:06:05;20.10;86.10
6293;DHT22;3179;54.350;10.102;2023-05-10T12:08:33;20.10;86.00
6293;DHT22;3179;54.350;10.102;2023-05-10T12:11:08;20.10;86.40
6293;DHT22;3179;54.350;10.102;2023-05-10T12:13:38;20.10;86.80
6293;DHT22;3179;54.350;10.102;2023-05-10T12:16:15;20.00;86.80
6293;DHT22;3179;54.350;10.102;2023-05-10T12:18:42;20.00;86.70
6293;DHT22;3179;54.350;10.102;2023-05-10T12:21:09;20.00;86.90
6293;DHT22;3179;54.350;10.102;2023-05-10T12:23:37;19.90;86.60
6293;DHT22;3179;54.350;10.102;2023-05-10T12:26:04;19.90;86.80
6293;DHT22;3179;54.350;10.102;2023-05-10T12:28:31;19.90;87.00
6293;DHT22;3179;54.350;10.102;2023-05-10T12:30:59;19.80;87.30
6293;DHT22;3179;54.350;10.102;2023-05-10T12:33:35;19.90;87.80
6293;DHT22;3179;54.350;10.102;2023-05-10T12:36:02;19.80;88.10
6293;DHT22;3179;54.350;10.102;2023-05-10T12:38:32;19.70;88.20
6293;DHT22;3179;54.350;10.102;2023-05-10T12:41:00;19.70;90.10
6293;DHT22;3179;54.350;10.102;2023-05-10T12:43:28;19.60;90.30
6293;DHT22;3179;54.350;10.102;2023-05-10T12:45:55;19.60;90.40
6293;DHT22;3179;54.350;10.102;2023-05-10T12:48:22;19.50;90.90
6293;DHT22;3179;54.350;10.102;2023-05-10T12:50:50;19.50;91.00
6293;DHT22;3179;54.350;10.102;2023-05-10T12:53:17;19.50;91.50
6293;DHT22;3179;54.350;10.102;2023-05-10T12:55:44;19.40;91.70
6293;DHT22;3179;54.350;10.102;2023-05-10T12:58:11;19.40;92.20
6293;DHT22;3179;54.350;10.102;2023-05-10T13:00:37;19.40;92.30
6293;DHT22;3179;54.350;10.102;2023-05-10T13:03:04;19.30;92.60
6293;DHT22;3179;54.350;10.102;2023-05-10T13:05:31;19.30;93.20
6293;DHT22;3179;54.350;10.102;2023-05-10T13:08:00;19.20;93.20
6293;DHT22;3179;54.350;10.102;2023-05-10T13:10:28;19.20;93.70
6293;DHT22;3179;54.350;10.102;2023-05-10T13:12:55;19.10;93.60
6293;DHT22;3179;54.350;10.102;2023-05-10T13:15:22;19.10;93.50
6293;DHT22;3179;54.350;10.102;2023-05-10T13:17:49;19.00;93.80
6293;DHT22;3179;54.350;10.102;2023-05-10T13:20:16;18.90;94.20
6293;DHT22;3179;54.350;10.102;2023-05-10T13:22:43;18.80;94.50
6293;DHT22;3179;54.350;10.102;2023-05-10T13:25:12;18.80;94.70
6293;DHT22;3179;54.350;10.102;2023-05-10T13:27:39;18.70;95.10
6293;DHT22;3179;54.350;10.102;2023-05-10T13:30:07;18.70;95.10
6293;DHT22;3179;54.350;10.102;2023-05-10T13:32:34;18.70;95.30
6293;DHT22;3179;54.350;10.102;2023-05-10T13:35:01;18.70;95.90
6293;DHT22;3179;54.350;10.102;2023-05-10T13:37:28;18.70;95.40
6293;DHT22;3179;54.350;10.102;2023-05-10T13:39:55;18.70;95.40
6293;DHT22;3179;54.350;10.102;2023-05-10T13:42:24;18.70;95.60
6293;DHT22;3179;54.350;10.102;2023-05-10T13:44:50;18.70;96.00
6293;DHT22;3179;54.350;10.102;2023-05-10T13:47:17;18.70;96.00
6293;DHT22;3179;54.350;10.102;2023-05-10T13:49:44;18.60;95.90
6293;DHT22;3179;54.350;10.102;2023-05-10T13:52:11;18.60;96.20
6293;DHT22;3179;54.350;10.102;2023-05-10T13:54:39;18.60;96.40
6293;DHT22;3179;54.350;10.102;2023-05-10T13:57:07;18.50;96.60
6293;DHT22;3179;54.350;10.102;2023-05-10T13:59:35;18.50;96.70
6293;DHT22;3179;54.350;10.102;2023-05-10T14:02:02;18.60;97.30
6293;DHT22;3179;54.350;10.102;2023-05-10T14:04:29;18.50;97.10
6293;DHT22;3179;54.350;10.102;2023-05-10T14:06:57;18.50;97.00
6293;DHT22;3179;54.350;10.102;2023-05-10T14:09:23;18.50;97.20
6293;DHT22;3179;54.350;10.102;2023-05-10T14:11:50;18.50;97.30
6293;DHT22;3179;54.350;10.102;2023-05-10T14:14:17;18.50;97.40
6293;DHT22;3179;54.350;10.102;2023-05-10T14:16:45;18.50;97.60
6293;DHT22;3179;54.350;10.102;2023-05-10T14:19:12;18.50;97.70
6293;DHT22;3179;54.350;10.102;2023-05-10T14:21:40;18.50;97.90
6293;DHT22;3179;54.350;10.102;2023-05-10T14:24:06;18.60;97.80
6293;DHT22;3179;54.350;10.102;2023-05-10T14:26:33;18.70;98.20
6293;DHT22;3179;54.350;10.102;2023-05-10T14:29:00;18.70;98.10
6293;DHT22;3179;54.350;10.102;2023-05-10T14:31:27;18.80;98.00
6293;DHT22;3179;54.350;10.102;2023-05-10T14:33:57;18.80;98.50
6293;DHT22;3179;54.350;10.102;2023-05-10T14:36:24;18.80;98.30
6293;DHT22;3179;54.350;10.102;2023-05-10T14:38:51;18.90;98.30
6293;DHT22;3179;54.350;10.102;2023-05-10T14:41:18;18.90;98.80
6293;DHT22;3179;54.350;10.102;2023-05-10T14:43:44;19.00;98.70
6293;DHT22;3179;54.350;10.102;2023-05-10T14:46:11;19.10;98.80
6293;DHT22;3179;54.350;10.102;2023-05-10T14:48:38;19.10;99.00
6293;DHT22;3179;54.350;10.102;2023-05-10T14:51:06;19.10;98.60
6293;DHT22;3179;54.350;10.102;2023-05-10T14:53:33;19.20;98.80
6293;DHT22;3179;54.350;10.102;2023-05-10T14:56:00;19.30;98.80
6293;DHT22;3179;54.350;10.102;2023-05-10T14:58:28;19.40;99.20
6293;DHT22;3179;54.350;10.102;2023-05-10T15:00:55;19.50;98.90
6293;DHT22;3179;54.350;10.102;2023-05-10T15:03:22;19.40;99.10
6293;DHT22;3179;54.350;10.102;2023-05-10T15:05:48;19.40;98.80
6293;DHT22;3179;54.350;10.102;2023-05-10T15:08:16;19.40;98.90
6293;DHT22;3179;54.350;10.102;2023-05-10T15:10:43;19.40;98.80
6293;DHT22;3179;54.350;10.102;2023-05-10T15:13:10;19.40;98.80
6293;DHT22;3179;54.350;10.102;2023-05-10T15:15:37;19.40;99.10
6293;DHT22;3179;54.350;10.102;2023-05-10T15:18:04;19.40;98.90
6293;DHT22;3179;54.350;10.102;2023-05-10T15:20:31;19.50;98.90
6293;DHT22;3179;54.350;10.102;2023-05-10T15:22:57;19.50;99.20
6293;DHT22;3179;54.350;10.102;2023-05-10T15:25:26;19.50;99.30
6293;DHT22;3179;54.350;10.102;2023-05-10T15:27:54;19.50;99.60
6293;DHT22;3179;54.350;10.102;2023-05-10T15:30:21;19.60;99.80
6293;DHT22;3179;54.350;10.102;2023-05-10T15:32:47;19.60;99.50
6293;DHT22;3179;54.350;10.102;2023-05-10T15:35:14;19.60;99.50
6293;DHT22;3179;54.350;10.102;2023-05-10T15:37:42;19.60;99.70
6293;DHT22;3179;54.350;10.102;2023-05-10T15:40:09;19.60;99.60
6293;DHT22;3179;54.350;10.102;2023-05-10T15:42:37;19.60;99.70
6293;DHT22;3179;54.350;10.102;2023-05-10T15:45:05;19.60;99.70
6293;DHT22;3179;54.350;10.102;2023-05-10T15:47:32;19.50;99.90
6293;DHT22;3179;54.350;10.102;2023-05-10T15:49:59;19.50;99.90
6293;DHT22;3179;54.350;10.102;2023-05-10T15:52:26;19.40;99.90
6293;DHT22;3179;54.350;10.102;2023-05-10T15:54:53;19.40;99.90
6293;DHT22;3179;54.350;10.102;2023-05-10T15:57:20;19.40;99.90
6293;DHT22;3179;54.350;10.102;2023-05-10T15:59:48;19.40;99.90
6293;DHT22;3179;54.350;10.102;2023-05-10T16:02:15;19.30;99.90
6293;DHT22;3179;54.350;10.102;2023-05-10T16:04:43;19.30;99.90
6293;DHT22;3179;54.350;10.102;2023-05-10T16:07:10;19.20;99.90
6293;DHT22;3179;54.350;10.102;2023-05-10T16:09:37;19.20;99.90
6293;DHT22;3179;54.350;10.102;2023-05-10T16:12:04;19.20;99.90
6293;DHT22;3179;54.350;10.102;2023-05-10T16:14:31;19.10;99.90
6293;DHT22;3179;54.350;10.102;2023-05-10T16:16:59;19.10;99.90
6293;DHT22;3179;54.350;10.102;2023-05-10T16:19:26;19.10;99.90